sensor_id;sensor_type;location;lat;lon;timestamp;temperature;humidity
52387;DHT22;38317;53.084;6.960;2022-12-29T00:01:40;9.60;99.90
52387;DHT22;38317;53.084;6.960;2022-12-29T00:04:06;9.60;99.90
52387;DHT22;38317;53.084;6.960;2022-12-29T00:06:32;9.60;99.90
52387;DHT22;38317;53.084;6.960;2022-12-29T00:08:58;9.60;99.90
52387;DHT22;38317;53.084;6.960;2022-12-29T00:11:26;9.70;99.90
52387;DHT22;38317;53.084;6.960;2022-12-29T00:13:53;9.70;99.90
52387;DHT22;38317;53.084;6.960;2022-12-29T00:16:40;9.70;99.90
52387;DHT22;38317;53.084;6.960;2022-12-29T00:19:05;9.70;99.90
52387;DHT22;38317;53.084;6.960;2022-12-29T00:21:32;9.70;99.90
52387;DHT22;38317;53.084;6.960;2022-12-29T00:24:18;9.70;99.90
52387;DHT22;38317;53.084;6.960;2022-12-29T00:29:47;9.70;99.90
52387;DHT22;38317;53.084;6.960;2022-12-29T00:32:32;9.70;99.90
52387;DHT22;38317;53.084;6.960;2022-12-29T00:35:29;9.80;99.90
52387;DHT22;38317;53.084;6.960;2022-12-29T00:37:58;9.70;99.90
52387;DHT22;38317;53.084;6.960;2022-12-29T00:40:43;9.70;99.90
52387;DHT22;38317;53.084;6.960;2022-12-29T00:43:27;9.70;99.90
52387;DHT22;38317;53.084;6.960;2022-12-29T00:46:11;9.70;99.90
52387;DHT22;38317;53.084;6.960;2022-12-29T00:48:37;9.70;99.90
52387;DHT22;38317;53.084;6.960;2022-12-29T00:51:21;9.70;99.90
52387;DHT22;38317;53.084;6.960;2022-12-29T00:53:47;9.70;99.90
52387;DHT22;38317;53.084;6.960;2022-12-29T00:56:12;9.70;99.90
52387;DHT22;38317;53.084;6.960;2022-12-29T00:58:38;9.70;99.90
52387;DHT22;38317;53.084;6.960;2022-12-29T01:01:08;9.70;99.90
52387;DHT22;38317;53.084;6.960;2022-12-29T01:03:35;9.80;99.90
52387;DHT22;38317;53.084;6.960;2022-12-29T01:06:02;9.80;99.90
52387;DHT22;38317;53.084;6.960;2022-12-29T01:08:29;9.80;99.90
52387;DHT22;38317;53.084;6.960;2022-12-29T01:10:59;9.80;99.90
52387;DHT22;38317;53.084;6.960;2022-12-29T01:13:25;9.80;99.90
52387;DHT22;38317;53.084;6.960;2022-12-29T01:15:51;9.80;99.90
52387;DHT22;38317;53.084;6.960;2022-12-29T01:18:17;9.80;99.90
52387;DHT22;38317;53.084;6.960;2022-12-29T01:20:43;9.80;99.90
52387;DHT22;38317;53.084;6.960;2022-12-29T01:23:08;9.80;99.90
52387;DHT22;38317;53.084;6.960;2022-12-29T01:25:34;9.80;99.90
52387;DHT22;38317;53.084;6.960;2022-12-29T01:28:00;9.90;99.90
52387;DHT22;38317;53.084;6.960;2022-12-29T01:30:25;9.90;99.90
52387;DHT22;38317;53.084;6.960;2022-12-29T01:32:51;9.90;99.90
52387;DHT22;38317;53.084;6.960;2022-12-29T01:35:17;9.90;99.90
52387;DHT22;38317;53.084;6.960;2022-12-29T01:37:42;9.90;99.90
52387;DHT22;38317;53.084;6.960;2022-12-29T01:40:08;9.90;99.90
52387;DHT22;38317;53.084;6.960;2022-12-29T01:42:34;9.90;99.90
52387;DHT22;38317;53.084;6.960;2022-12-29T01:45:10;9.90;99.90
52387;DHT22;38317;53.084;6.960;2022-12-29T01:50:45;9.90;99.90
52387;DHT22;38317;53.084;6.960;2022-12-29T01:53:19;9.90;99.90
52387;DHT22;38317;53.084;6.960;2022-12-29T01:55:50;9.90;99.90
52387;DHT22;38317;53.084;6.960;2022-12-29T01:58:19;9.90;99.90
52387;DHT22;38317;53.084;6.960;2022-12-29T02:00:47;9.90;99.90
52387;DHT22;38317;53.084;6.960;2022-12-29T02:03:13;10.00;99.90
52387;DHT22;38317;53.084;6.960;2022-12-29T02:08:33;10.10;99.90
52387;DHT22;38317;53.084;6.960;2022-12-29T02:11:00;10.10;99.90
52387;DHT22;38317;53.084;6.960;2022-12-29T02:13:27;10.10;99.90
52387;DHT22;38317;53.084;6.960;2022-12-29T02:35:44;11.40;99.90
52387;DHT22;38317;53.084;6.960;2022-12-29T02:38:23;10.20;99.90
52387;DHT22;38317;53.084;6.960;2022-12-29T02:48:52;10.20;99.90
52387;DHT22;38317;53.084;6.960;2022-12-29T02:51:25;10.30;99.90
52387;DHT22;38317;53.084;6.960;2022-12-29T02:53:53;10.30;99.90
52387;DHT22;38317;53.084;6.960;2022-12-29T02:56:38;10.30;99.90
52387;DHT22;38317;53.084;6.960;2022-12-29T02:59:04;10.30;99.90
52387;DHT22;38317;53.084;6.960;2022-12-29T03:10:36;10.20;99.90
52387;DHT22;38317;53.084;6.960;2022-12-29T03:16:33;10.30;99.90
52387;DHT22;38317;53.084;6.960;2022-12-29T03:19:04;10.30;99.90
52387;DHT22;38317;53.084;6.960;2022-12-29T03:21:44;10.30;99.90
52387;DHT22;38317;53.084;6.960;2022-12-29T03:24:33;10.20;99.90
52387;DHT22;38317;53.084;6.960;2022-12-29T03:27:02;10.30;99.90
52387;DHT22;38317;53.084;6.960;2022-12-29T03:29:32;10.20;99.90
52387;DHT22;38317;53.084;6.960;2022-12-29T03:31:59;10.20;99.90
52387;DHT22;38317;53.084;6.960;2022-12-29T03:34:28;10.20;99.90
52387;DHT22;38317;53.084;6.960;2022-12-29T03:37:00;10.20;99.90
52387;DHT22;38317;53.084;6.960;2022-12-29T03:39:27;10.20;99.90
52387;DHT22;38317;53.084;6.960;2022-12-29T03:41:59;10.20;99.90
52387;DHT22;38317;53.084;6.960;2022-12-29T03:44:37;10.20;99.90
52387;DHT22;38317;53.084;6.960;2022-12-29T03:47:05;10.20;99.90
52387;DHT22;38317;53.084;6.960;2022-12-29T03:49:31;10.20;99.90
52387;DHT22;38317;53.084;6.960;2022-12-29T03:51:56;10.20;99.90
52387;DHT22;38317;53.084;6.960;2022-12-29T03:54:22;10.20;99.90
52387;DHT22;38317;53.084;6.960;2022-12-29T03:56:48;10.10;99.90
52387;DHT22;38317;53.084;6.960;2022-12-29T03:59:14;10.20;99.90
52387;DHT22;38317;53.084;6.960;2022-12-29T04:01:39;10.10;99.90
52387;DHT22;38317;53.084;6.960;2022-12-29T04:04:05;10.10;99.90
52387;DHT22;38317;53.084;6.960;2022-12-29T04:06:31;10.10;99.90
52387;DHT22;38317;53.084;6.960;2022-12-29T04:08:56;10.10;99.90
52387;DHT22;38317;53.084;6.960;2022-12-29T04:11:22;10.00;99.90
52387;DHT22;38317;53.084;6.960;2022-12-29T04:13:48;10.00;99.90
52387;DHT22;38317;53.084;6.960;2022-12-29T04:16:14;10.00;99.90
52387;DHT22;38317;53.084;6.960;2022-12-29T04:18:40;10.00;99.90
52387;DHT22;38317;53.084;6.960;2022-12-29T04:21:06;10.00;99.90
52387;DHT22;38317;53.084;6.960;2022-12-29T04:23:37;10.00;99.90
52387;DHT22;38317;53.084;6.960;2022-12-29T04:26:04;10.00;99.90
52387;DHT22;38317;53.084;6.960;2022-12-29T04:28:33;10.00;99.90
52387;DHT22;38317;53.084;6.960;2022-12-29T04:30:59;10.00;99.90
52387;DHT22;38317;53.084;6.960;2022-12-29T04:33:25;10.00;99.90
52387;DHT22;38317;53.084;6.960;2022-12-29T04:35:50;10.00;99.90
52387;DHT22;38317;53.084;6.960;2022-12-29T04:38:18;10.00;99.90
52387;DHT22;38317;53.084;6.960;2022-12-29T04:40:44;10.00;99.90
52387;DHT22;38317;53.084;6.960;2022-12-29T04:43:10;9.90;99.90
52387;DHT22;38317;53.084;6.960;2022-12-29T04:45:36;10.00;99.90
52387;DHT22;38317;53.084;6.960;2022-12-29T04:48:02;10.00;99.90
52387;DHT22;38317;53.084;6.960;2022-12-29T04:50:28;9.90;99.90
52387;DHT22;38317;53.084;6.960;2022-12-29T04:52:54;9.90;99.90
52387;DHT22;38317;53.084;6.960;2022-12-29T04:55:20;9.90;99.90
52387;DHT22;38317;53.084;6.960;2022-12-29T04:57:46;9.70;99.90
52387;DHT22;38317;53.084;6.960;2022-12-29T05:00:12;9.80;99.90
52387;DHT22;38317;53.084;6.960;2022-12-29T05:02:38;9.70;99.90
52387;DHT22;38317;53.084;6.960;2022-12-29T05:05:05;9.70;99.90
52387;DHT22;38317;53.084;6.960;2022-12-29T05:07:31;9.60;99.90
52387;DHT22;38317;53.084;6.960;2022-12-29T05:09:59;9.60;99.90
52387;DHT22;38317;53.084;6.960;2022-12-29T05:12:24;9.50;99.90
52387;DHT22;38317;53.084;6.960;2022-12-29T05:14:50;9.50;99.90
52387;DHT22;38317;53.084;6.960;2022-12-29T05:17:16;9.50;99.90
52387;DHT22;38317;53.084;6.960;2022-12-29T05:19:41;9.50;99.90
52387;DHT22;38317;53.084;6.960;2022-12-29T05:22:07;9.50;99.90
52387;DHT22;38317;53.084;6.960;2022-12-29T05:24:33;9.50;99.90
52387;DHT22;38317;53.084;6.960;2022-12-29T05:26:59;9.50;99.90
52387;DHT22;38317;53.084;6.960;2022-12-29T05:29:24;9.50;99.90
52387;DHT22;38317;53.084;6.960;2022-12-29T05:31:50;9.50;99.90
52387;DHT22;38317;53.084;6.960;2022-12-29T05:34:16;9.50;99.90
52387;DHT22;38317;53.084;6.960;2022-12-29T05:36:41;9.60;99.90
52387;DHT22;38317;53.084;6.960;2022-12-29T05:39:07;9.50;99.90
52387;DHT22;38317;53.084;6.960;2022-12-29T05:41:34;9.50;99.90
52387;DHT22;38317;53.084;6.960;2022-12-29T05:44:00;9.40;99.90
52387;DHT22;38317;53.084;6.960;2022-12-29T05:46:25;9.40;99.90
52387;DHT22;38317;53.084;6.960;2022-12-29T05:48:51;9.40;99.90
52387;DHT22;38317;53.084;6.960;2022-12-29T05:51:17;9.40;99.90
52387;DHT22;38317;53.084;6.960;2022-12-29T05:53:43;9.40;99.90
52387;DHT22;38317;53.084;6.960;2022-12-29T05:56:08;9.30;99.90
52387;DHT22;38317;53.084;6.960;2022-12-29T05:58:34;9.30;99.90
52387;DHT22;38317;53.084;6.960;2022-12-29T06:01:00;9.30;99.90
52387;DHT22;38317;53.084;6.960;2022-12-29T06:03:25;9.30;99.90
52387;DHT22;38317;53.084;6.960;2022-12-29T06:05:51;9.30;99.90
52387;DHT22;38317;53.084;6.960;2022-12-29T06:08:17;9.20;99.90
52387;DHT22;38317;53.084;6.960;2022-12-29T06:10:42;9.20;99.90
52387;DHT22;38317;53.084;6.960;2022-12-29T06:13:08;9.20;99.90
52387;DHT22;38317;53.084;6.960;2022-12-29T06:15:35;9.10;99.90
52387;DHT22;38317;53.084;6.960;2022-12-29T06:18:01;9.10;99.90
52387;DHT22;38317;53.084;6.960;2022-12-29T06:20:27;9.10;99.90
52387;DHT22;38317;53.084;6.960;2022-12-29T06:22:53;9.10;99.90
52387;DHT22;38317;53.084;6.960;2022-12-29T06:25:18;9.10;99.90
52387;DHT22;38317;53.084;6.960;2022-12-29T06:27:44;9.10;99.90
52387;DHT22;38317;53.084;6.960;2022-12-29T06:30:11;9.20;99.90
52387;DHT22;38317;53.084;6.960;2022-12-29T06:32:37;9.20;99.90
52387;DHT22;38317;53.084;6.960;2022-12-29T06:35:03;9.20;99.90
52387;DHT22;38317;53.084;6.960;2022-12-29T06:37:29;9.20;99.90
52387;DHT22;38317;53.084;6.960;2022-12-29T06:39:55;9.20;99.90
52387;DHT22;38317;53.084;6.960;2022-12-29T06:42:21;9.30;99.90
52387;DHT22;38317;53.084;6.960;2022-12-29T06:44:46;9.30;99.90
52387;DHT22;38317;53.084;6.960;2022-12-29T06:47:12;9.30;99.90
52387;DHT22;38317;53.084;6.960;2022-12-29T06:49:38;9.30;99.90
52387;DHT22;38317;53.084;6.960;2022-12-29T06:52:04;9.30;99.90
52387;DHT22;38317;53.084;6.960;2022-12-29T06:54:30;9.30;99.90
52387;DHT22;38317;53.084;6.960;2022-12-29T06:56:56;9.30;99.90
52387;DHT22;38317;53.084;6.960;2022-12-29T06:59:22;9.30;99.90
52387;DHT22;38317;53.084;6.960;2022-12-29T07:01:49;9.30;99.90
52387;DHT22;38317;53.084;6.960;2022-12-29T07:04:14;9.30;99.90
52387;DHT22;38317;53.084;6.960;2022-12-29T07:06:40;9.30;99.90
52387;DHT22;38317;53.084;6.960;2022-12-29T07:09:07;9.30;99.90
52387;DHT22;38317;53.084;6.960;2022-12-29T07:11:33;9.30;99.90
52387;DHT22;38317;53.084;6.960;2022-12-29T07:13:59;9.30;99.90
52387;DHT22;38317;53.084;6.960;2022-12-29T07:16:25;9.30;99.90
52387;DHT22;38317;53.084;6.960;2022-12-29T07:18:51;9.30;99.90
52387;DHT22;38317;53.084;6.960;2022-12-29T07:21:18;9.40;99.90
52387;DHT22;38317;53.084;6.960;2022-12-29T07:23:44;9.40;99.90
52387;DHT22;38317;53.084;6.960;2022-12-29T07:26:12;9.30;99.90
52387;DHT22;38317;53.084;6.960;2022-12-29T07:28:39;9.30;99.90
52387;DHT22;38317;53.084;6.960;2022-12-29T07:31:05;9.30;99.90
52387;DHT22;38317;53.084;6.960;2022-12-29T07:33:32;9.30;99.90
52387;DHT22;38317;53.084;6.960;2022-12-29T07:35:58;9.30;99.90
52387;DHT22;38317;53.084;6.960;2022-12-29T07:38:24;9.20;99.90
52387;DHT22;38317;53.084;6.960;2022-12-29T07:40:50;9.20;99.90
52387;DHT22;38317;53.084;6.960;2022-12-29T07:43:16;9.10;99.90
52387;DHT22;38317;53.084;6.960;2022-12-29T07:45:41;9.20;99.90
52387;DHT22;38317;53.084;6.960;2022-12-29T07:48:07;9.20;99.90
52387;DHT22;38317;53.084;6.960;2022-12-29T07:50:36;9.20;99.90
52387;DHT22;38317;53.084;6.960;2022-12-29T07:53:02;9.20;99.90
52387;DHT22;38317;53.084;6.960;2022-12-29T07:55:28;9.20;99.90
52387;DHT22;38317;53.084;6.960;2022-12-29T07:57:55;9.20;99.90
52387;DHT22;38317;53.084;6.960;2022-12-29T08:00:21;9.20;99.90
52387;DHT22;38317;53.084;6.960;2022-12-29T08:02:47;9.30;99.90
52387;DHT22;38317;53.084;6.960;2022-12-29T08:05:13;9.30;99.90
52387;DHT22;38317;53.084;6.960;2022-12-29T08:07:38;9.30;99.90
52387;DHT22;38317;53.084;6.960;2022-12-29T08:10:05;9.30;99.90
52387;DHT22;38317;53.084;6.960;2022-12-29T08:12:31;9.30;99.90
52387;DHT22;38317;53.084;6.960;2022-12-29T08:14:56;9.30;99.90
52387;DHT22;38317;53.084;6.960;2022-12-29T08:17:22;9.30;99.90
52387;DHT22;38317;53.084;6.960;2022-12-29T08:19:48;9.30;99.90
52387;DHT22;38317;53.084;6.960;2022-12-29T08:22:14;9.30;99.90
52387;DHT22;38317;53.084;6.960;2022-12-29T08:24:40;9.40;99.90
52387;DHT22;38317;53.084;6.960;2022-12-29T08:27:06;9.40;99.90
52387;DHT22;38317;53.084;6.960;2022-12-29T08:29:31;9.30;99.90
52387;DHT22;38317;53.084;6.960;2022-12-29T08:31:57;9.30;99.90
52387;DHT22;38317;53.084;6.960;2022-12-29T08:34:23;9.30;99.90
52387;DHT22;38317;53.084;6.960;2022-12-29T08:36:49;9.30;99.90
52387;DHT22;38317;53.084;6.960;2022-12-29T08:39:14;9.30;99.90
52387;DHT22;38317;53.084;6.960;2022-12-29T08:41:40;9.30;99.90
52387;DHT22;38317;53.084;6.960;2022-12-29T08:44:06;9.30;99.90
52387;DHT22;38317;53.084;6.960;2022-12-29T08:46:32;9.40;99.90
52387;DHT22;38317;53.084;6.960;2022-12-29T08:48:58;9.40;99.90
52387;DHT22;38317;53.084;6.960;2022-12-29T08:51:23;9.40;99.90
52387;DHT22;38317;53.084;6.960;2022-12-29T08:53:49;9.40;99.90
52387;DHT22;38317;53.084;6.960;2022-12-29T08:56:16;9.50;99.90
52387;DHT22;38317;53.084;6.960;2022-12-29T08:58:41;9.50;99.90
52387;DHT22;38317;53.084;6.960;2022-12-29T09:01:08;9.50;99.90
52387;DHT22;38317;53.084;6.960;2022-12-29T09:03:34;9.50;99.90
52387;DHT22;38317;53.084;6.960;2022-12-29T09:06:00;9.60;99.90
52387;DHT22;38317;53.084;6.960;2022-12-29T09:08:26;9.60;99.90
52387;DHT22;38317;53.084;6.960;2022-12-29T09:10:52;9.60;99.90
52387;DHT22;38317;53.084;6.960;2022-12-29T09:13:18;9.70;99.90
52387;DHT22;38317;53.084;6.960;2022-12-29T09:15:44;9.70;99.90
52387;DHT22;38317;53.084;6.960;2022-12-29T09:18:10;9.70;99.90
52387;DHT22;38317;53.084;6.960;2022-12-29T09:20:36;9.70;99.90
52387;DHT22;38317;53.084;6.960;2022-12-29T09:23:03;9.70;99.90
52387;DHT22;38317;53.084;6.960;2022-12-29T09:25:29;9.70;99.90
52387;DHT22;38317;53.084;6.960;2022-12-29T09:27:55;9.70;99.90
52387;DHT22;38317;53.084;6.960;2022-12-29T09:30:22;9.70;99.90
52387;DHT22;38317;53.084;6.960;2022-12-29T09:32:48;9.70;99.90
52387;DHT22;38317;53.084;6.960;2022-12-29T09:35:15;9.60;99.90
52387;DHT22;38317;53.084;6.960;2022-12-29T09:37:43;9.60;99.90
52387;DHT22;38317;53.084;6.960;2022-12-29T09:40:27;9.50;99.90
52387;DHT22;38317;53.084;6.960;2022-12-29T09:43:48;9.50;99.90
52387;DHT22;38317;53.084;6.960;2022-12-29T09:46:25;9.50;99.90
52387;DHT22;38317;53.084;6.960;2022-12-29T09:51:59;9.40;99.90
52387;DHT22;38317;53.084;6.960;2022-12-29T09:57:20;9.40;99.90
52387;DHT22;38317;53.084;6.960;2022-12-29T09:59:50;9.40;99.90
52387;DHT22;38317;53.084;6.960;2022-12-29T10:02:42;9.40;99.90
52387;DHT22;38317;53.084;6.960;2022-12-29T10:05:43;9.40;99.90
52387;DHT22;38317;53.084;6.960;2022-12-29T10:08:18;9.40;99.90
52387;DHT22;38317;53.084;6.960;2022-12-29T10:11:03;9.50;99.90
52387;DHT22;38317;53.084;6.960;2022-12-29T10:16:29;9.60;99.90
52387;DHT22;38317;53.084;6.960;2022-12-29T10:19:09;9.60;99.90
52387;DHT22;38317;53.084;6.960;2022-12-29T10:24:16;9.50;99.90
52387;DHT22;38317;53.084;6.960;2022-12-29T10:26:43;9.50;99.90
52387;DHT22;38317;53.084;6.960;2022-12-29T10:29:26;9.50;99.90
52387;DHT22;38317;53.084;6.960;2022-12-29T10:34:51;9.40;99.90
52387;DHT22;38317;53.084;6.960;2022-12-29T10:37:38;9.40;99.90
52387;DHT22;38317;53.084;6.960;2022-12-29T10:40:33;9.30;99.90
52387;DHT22;38317;53.084;6.960;2022-12-29T10:43:24;9.30;99.90
52387;DHT22;38317;53.084;6.960;2022-12-29T10:45:52;9.20;99.90
52387;DHT22;38317;53.084;6.960;2022-12-29T10:48:27;9.20;99.90
52387;DHT22;38317;53.084;6.960;2022-12-29T10:50:56;9.10;99.90
52387;DHT22;38317;53.084;6.960;2022-12-29T10:53:26;9.10;99.90
52387;DHT22;38317;53.084;6.960;2022-12-29T10:55:53;9.10;99.90
52387;DHT22;38317;53.084;6.960;2022-12-29T10:58:20;9.00;99.90
52387;DHT22;38317;53.084;6.960;2022-12-29T11:00:52;9.00;99.90
52387;DHT22;38317;53.084;6.960;2022-12-29T11:03:43;9.00;99.90
52387;DHT22;38317;53.084;6.960;2022-12-29T11:06:22;8.90;99.90
52387;DHT22;38317;53.084;6.960;2022-12-29T11:09:02;8.90;99.90
52387;DHT22;38317;53.084;6.960;2022-12-29T11:11:35;9.00;99.90
52387;DHT22;38317;53.084;6.960;2022-12-29T11:14:14;9.00;99.90
52387;DHT22;38317;53.084;6.960;2022-12-29T11:16:41;9.00;99.90
52387;DHT22;38317;53.084;6.960;2022-12-29T11:19:23;9.00;99.90
52387;DHT22;38317;53.084;6.960;2022-12-29T11:21:49;8.90;99.90
52387;DHT22;38317;53.084;6.960;2022-12-29T11:24:25;8.90;99.90
52387;DHT22;38317;53.084;6.960;2022-12-29T11:26:53;8.90;99.90
52387;DHT22;38317;53.084;6.960;2022-12-29T11:29:37;8.90;99.90
52387;DHT22;38317;53.084;6.960;2022-12-29T11:32:12;8.90;99.90
52387;DHT22;38317;53.084;6.960;2022-12-29T11:34:38;8.90;99.90
52387;DHT22;38317;53.084;6.960;2022-12-29T11:37:18;8.80;99.90
52387;DHT22;38317;53.084;6.960;2022-12-29T11:40:21;8.80;99.90
52387;DHT22;38317;53.084;6.960;2022-12-29T11:42:51;8.80;99.90
52387;DHT22;38317;53.084;6.960;2022-12-29T11:45:22;8.80;99.90
52387;DHT22;38317;53.084;6.960;2022-12-29T11:47:57;8.80;99.90
52387;DHT22;38317;53.084;6.960;2022-12-29T11:50:27;8.80;99.90
52387;DHT22;38317;53.084;6.960;2022-12-29T11:53:23;8.80;99.90
52387;DHT22;38317;53.084;6.960;2022-12-29T11:55:57;8.70;99.90
52387;DHT22;38317;53.084;6.960;2022-12-29T11:58:36;8.70;99.90
52387;DHT22;38317;53.084;6.960;2022-12-29T12:01:23;8.70;99.90
52387;DHT22;38317;53.084;6.960;2022-12-29T12:04:16;8.70;99.90
52387;DHT22;38317;53.084;6.960;2022-12-29T12:09:27;8.70;99.90
52387;DHT22;38317;53.084;6.960;2022-12-29T12:11:55;8.70;99.90
52387;DHT22;38317;53.084;6.960;2022-12-29T12:14:32;8.70;99.90
52387;DHT22;38317;53.084;6.960;2022-12-29T12:17:11;8.70;99.90
52387;DHT22;38317;53.084;6.960;2022-12-29T12:23:13;8.70;99.90
52387;DHT22;38317;53.084;6.960;2022-12-29T12:33:58;9.00;99.90
52387;DHT22;38317;53.084;6.960;2022-12-29T12:36:38;9.10;99.90
52387;DHT22;38317;53.084;6.960;2022-12-29T12:39:12;9.20;99.90
52387;DHT22;38317;53.084;6.960;2022-12-29T12:47:57;9.30;99.90
52387;DHT22;38317;53.084;6.960;2022-12-29T12:50:35;9.30;99.90
52387;DHT22;38317;53.084;6.960;2022-12-29T12:53:24;9.30;99.90
52387;DHT22;38317;53.084;6.960;2022-12-29T12:59:07;9.20;99.90
52387;DHT22;38317;53.084;6.960;2022-12-29T13:10:19;9.20;99.90
52387;DHT22;38317;53.084;6.960;2022-12-29T13:15:49;10.70;99.90
52387;DHT22;38317;53.084;6.960;2022-12-29T13:22:33;9.10;99.90
52387;DHT22;38317;53.084;6.960;2022-12-29T13:30:36;9.20;99.90
52387;DHT22;38317;53.084;6.960;2022-12-29T13:33:50;9.30;99.90
52387;DHT22;38317;53.084;6.960;2022-12-29T13:36:48;9.30;99.90
52387;DHT22;38317;53.084;6.960;2022-12-29T13:40:10;9.40;99.90
52387;DHT22;38317;53.084;6.960;2022-12-29T13:42:12;9.50;99.90
52387;DHT22;38317;53.084;6.960;2022-12-29T13:44:46;9.50;99.90
52387;DHT22;38317;53.084;6.960;2022-12-29T13:47:37;9.50;99.90
52387;DHT22;38317;53.084;6.960;2022-12-29T13:50:12;9.50;99.90
52387;DHT22;38317;53.084;6.960;2022-12-29T13:55:25;9.50;99.90
52387;DHT22;38317;53.084;6.960;2022-12-29T14:03:41;9.50;99.90
52387;DHT22;38317;53.084;6.960;2022-12-29T14:08:43;9.50;99.90
52387;DHT22;38317;53.084;6.960;2022-12-29T14:11:10;9.50;99.90
52387;DHT22;38317;53.084;6.960;2022-12-29T14:13:42;9.50;99.90
52387;DHT22;38317;53.084;6.960;2022-12-29T14:16:31;9.40;99.90
52387;DHT22;38317;53.084;6.960;2022-12-29T14:19:15;9.30;99.90
52387;DHT22;38317;53.084;6.960;2022-12-29T14:21:54;9.20;99.90
52387;DHT22;38317;53.084;6.960;2022-12-29T14:24:45;9.20;99.90
52387;DHT22;38317;53.084;6.960;2022-12-29T14:34:51;9.00;99.90
52387;DHT22;38317;53.084;6.960;2022-12-29T14:37:32;8.90;99.90
52387;DHT22;38317;53.084;6.960;2022-12-29T14:40:23;8.90;99.90
52387;DHT22;38317;53.084;6.960;2022-12-29T14:42:52;8.90;99.90
52387;DHT22;38317;53.084;6.960;2022-12-29T14:47:48;8.80;99.90
52387;DHT22;38317;53.084;6.960;2022-12-29T15:00:38;8.70;99.90
52387;DHT22;38317;53.084;6.960;2022-12-29T15:03:13;8.70;99.90
52387;DHT22;38317;53.084;6.960;2022-12-29T15:05:54;8.70;99.90
52387;DHT22;38317;53.084;6.960;2022-12-29T15:08:25;8.70;99.90
52387;DHT22;38317;53.084;6.960;2022-12-29T15:11:00;8.70;99.90
52387;DHT22;38317;53.084;6.960;2022-12-29T15:13:39;8.70;99.90
52387;DHT22;38317;53.084;6.960;2022-12-29T15:16:32;8.60;99.90
52387;DHT22;38317;53.084;6.960;2022-12-29T15:18:59;8.60;99.90
52387;DHT22;38317;53.084;6.960;2022-12-29T15:21:34;8.60;99.90
52387;DHT22;38317;53.084;6.960;2022-12-29T15:24:00;8.60;99.90
52387;DHT22;38317;53.084;6.960;2022-12-29T15:26:41;8.50;99.90
52387;DHT22;38317;53.084;6.960;2022-12-29T15:29:37;8.50;99.90
52387;DHT22;38317;53.084;6.960;2022-12-29T15:34:44;8.40;99.90
52387;DHT22;38317;53.084;6.960;2022-12-29T15:37:32;8.40;99.90
52387;DHT22;38317;53.084;6.960;2022-12-29T15:39:59;8.30;99.90
52387;DHT22;38317;53.084;6.960;2022-12-29T15:42:56;8.30;99.90
52387;DHT22;38317;53.084;6.960;2022-12-29T15:45:30;8.30;99.90
52387;DHT22;38317;53.084;6.960;2022-12-29T15:47:58;8.20;99.90
52387;DHT22;38317;53.084;6.960;2022-12-29T15:50:35;8.20;99.90
52387;DHT22;38317;53.084;6.960;2022-12-29T15:53:03;8.20;99.90
52387;DHT22;38317;53.084;6.960;2022-12-29T15:55:37;8.20;99.90
52387;DHT22;38317;53.084;6.960;2022-12-29T15:58:20;8.20;99.90
52387;DHT22;38317;53.084;6.960;2022-12-29T16:00:49;8.20;99.90
52387;DHT22;38317;53.084;6.960;2022-12-29T16:03:15;8.20;99.90
52387;DHT22;38317;53.084;6.960;2022-12-29T16:05:50;8.20;99.90
52387;DHT22;38317;53.084;6.960;2022-12-29T16:08:42;8.20;99.90
52387;DHT22;38317;53.084;6.960;2022-12-29T16:11:24;8.20;99.90
52387;DHT22;38317;53.084;6.960;2022-12-29T16:13:52;8.20;99.90
52387;DHT22;38317;53.084;6.960;2022-12-29T16:16:22;8.20;99.90
52387;DHT22;38317;53.084;6.960;2022-12-29T16:18:51;8.20;99.90
52387;DHT22;38317;53.084;6.960;2022-12-29T16:21:38;8.20;99.90
52387;DHT22;38317;53.084;6.960;2022-12-29T16:24:12;8.20;99.90
52387;DHT22;38317;53.084;6.960;2022-12-29T16:26:39;8.20;99.90
52387;DHT22;38317;53.084;6.960;2022-12-29T16:29:12;8.10;99.90
52387;DHT22;38317;53.084;6.960;2022-12-29T16:31:55;8.10;99.90
52387;DHT22;38317;53.084;6.960;2022-12-29T16:34:42;8.10;99.90
52387;DHT22;38317;53.084;6.960;2022-12-29T16:37:31;8.10;99.90
52387;DHT22;38317;53.084;6.960;2022-12-29T16:50:31;8.20;99.90
52387;DHT22;38317;53.084;6.960;2022-12-29T16:52:57;8.20;99.90
52387;DHT22;38317;53.084;6.960;2022-12-29T16:55:23;8.20;99.90
52387;DHT22;38317;53.084;6.960;2022-12-29T16:57:52;8.20;99.90
52387;DHT22;38317;53.084;6.960;2022-12-29T17:00:21;8.30;99.90
52387;DHT22;38317;53.084;6.960;2022-12-29T17:02:49;8.30;99.90
52387;DHT22;38317;53.084;6.960;2022-12-29T17:05:17;8.20;99.90
52387;DHT22;38317;53.084;6.960;2022-12-29T17:07:44;8.30;99.90
52387;DHT22;38317;53.084;6.960;2022-12-29T17:10:10;8.30;99.90
52387;DHT22;38317;53.084;6.960;2022-12-29T17:12:37;8.30;99.90
52387;DHT22;38317;53.084;6.960;2022-12-29T17:15:14;8.30;99.90
52387;DHT22;38317;53.084;6.960;2022-12-29T17:17:45;8.20;99.90
52387;DHT22;38317;53.084;6.960;2022-12-29T17:20:19;8.20;99.90
52387;DHT22;38317;53.084;6.960;2022-12-29T17:22:45;8.10;99.90
52387;DHT22;38317;53.084;6.960;2022-12-29T17:25:13;8.00;99.90
52387;DHT22;38317;53.084;6.960;2022-12-29T17:27:53;8.00;99.90
52387;DHT22;38317;53.084;6.960;2022-12-29T17:30:22;7.90;99.90
52387;DHT22;38317;53.084;6.960;2022-12-29T17:33:00;7.90;99.90
52387;DHT22;38317;53.084;6.960;2022-12-29T17:35:27;7.80;99.90
52387;DHT22;38317;53.084;6.960;2022-12-29T17:37:53;7.80;99.90
52387;DHT22;38317;53.084;6.960;2022-12-29T17:40:29;7.80;99.90
52387;DHT22;38317;53.084;6.960;2022-12-29T17:42:57;7.70;99.90
52387;DHT22;38317;53.084;6.960;2022-12-29T17:45:28;7.70;99.90
52387;DHT22;38317;53.084;6.960;2022-12-29T17:47:55;7.60;99.90
52387;DHT22;38317;53.084;6.960;2022-12-29T17:50:24;7.60;99.90
52387;DHT22;38317;53.084;6.960;2022-12-29T17:52:56;7.60;99.90
52387;DHT22;38317;53.084;6.960;2022-12-29T17:55:24;7.60;99.90
52387;DHT22;38317;53.084;6.960;2022-12-29T17:57:51;7.60;99.90
52387;DHT22;38317;53.084;6.960;2022-12-29T18:00:18;7.60;99.90
52387;DHT22;38317;53.084;6.960;2022-12-29T18:02:44;7.60;99.90
52387;DHT22;38317;53.084;6.960;2022-12-29T18:05:29;7.50;99.90
52387;DHT22;38317;53.084;6.960;2022-12-29T18:07:57;7.50;99.90
52387;DHT22;38317;53.084;6.960;2022-12-29T18:10:26;7.50;99.90
52387;DHT22;38317;53.084;6.960;2022-12-29T18:12:54;7.40;99.90
52387;DHT22;38317;53.084;6.960;2022-12-29T18:15:27;7.40;99.90
52387;DHT22;38317;53.084;6.960;2022-12-29T18:18:15;7.40;99.90
52387;DHT22;38317;53.084;6.960;2022-12-29T18:20:42;7.40;99.90
52387;DHT22;38317;53.084;6.960;2022-12-29T18:28:17;7.30;99.90
52387;DHT22;38317;53.084;6.960;2022-12-29T18:30:43;7.30;99.90
52387;DHT22;38317;53.084;6.960;2022-12-29T18:33:17;7.30;99.90
52387;DHT22;38317;53.084;6.960;2022-12-29T18:35:59;7.30;99.90
52387;DHT22;38317;53.084;6.960;2022-12-29T18:38:26;7.30;99.90
52387;DHT22;38317;53.084;6.960;2022-12-29T18:40:52;7.30;99.90
52387;DHT22;38317;53.084;6.960;2022-12-29T18:43:19;7.40;99.90
52387;DHT22;38317;53.084;6.960;2022-12-29T18:45:45;7.40;99.90
52387;DHT22;38317;53.084;6.960;2022-12-29T18:48:12;7.40;99.90